createdAt,value
2022-12-23T00:00:59.754Z,3.32
2022-12-23T00:03:33.063Z,3.42
2022-12-23T00:06:10.277Z,3.36
2022-12-23T00:08:43.451Z,3.35
2022-12-23T00:11:19.645Z,3.30
2022-12-23T00:14:14.681Z,3.35
2022-12-23T00:16:51.472Z,3.27
2022-12-23T00:19:23.713Z,3.36
2022-12-23T00:21:55.658Z,3.41
2022-12-23T00:24:27.603Z,3.49
2022-12-23T00:26:59.986Z,3.33
2022-12-23T00:29:31.929Z,3.45
2022-12-23T00:32:04.102Z,3.30
2022-12-23T00:34:36.178Z,3.37
2022-12-23T00:37:08.067Z,3.31
2022-12-23T00:40:04.284Z,3.30
2022-12-23T00:42:56.873Z,3.35
2022-12-23T00:45:28.864Z,3.42
2022-12-23T00:48:19.759Z,3.24
2022-12-23T00:50:53.103Z,3.40
2022-12-23T00:53:25.127Z,3.23
2022-12-23T00:55:57.242Z,3.17
2022-12-23T00:58:29.372Z,2.76
2022-12-23T01:01:19.951Z,3.41
2022-12-23T01:04:10.783Z,3.38
2022-12-23T01:06:42.929Z,3.46
2022-12-23T01:09:15.401Z,3.36
2022-12-23T01:11:47.407Z,3.45
2022-12-23T01:14:20.267Z,3.47
2022-12-23T01:16:52.518Z,3.35
2022-12-23T01:19:24.645Z,3.38
2022-12-23T01:21:56.602Z,2.95
2022-12-23T01:24:33.190Z,3.30
2022-12-23T01:27:05.145Z,3.28
2022-12-23T01:29:37.136Z,3.46
2022-12-23T01:32:09.091Z,3.35
2022-12-23T01:34:41.225Z,3.15
2022-12-23T01:37:13.172Z,3.35
2022-12-23T01:39:45.396Z,3.31
2022-12-23T01:42:38.802Z,3.35
2022-12-23T01:45:29.377Z,3.49
2022-12-23T01:48:18.088Z,3.28
2022-12-23T01:51:02.892Z,3.48
2022-12-23T01:53:39.463Z,3.27
2022-12-23T01:56:20.232Z,3.47
2022-12-23T01:58:58.953Z,3.43
2022-12-23T02:01:50.471Z,2.97
2022-12-23T02:04:26.122Z,3.38
2022-12-23T02:07:16.689Z,3.42
2022-12-23T02:09:48.675Z,3.35
2022-12-23T02:12:53.872Z,3.49
2022-12-23T02:16:10.155Z,3.40
2022-12-23T02:18:53.895Z,3.52
2022-12-23T02:21:41.018Z,3.52
2022-12-23T02:24:24.864Z,3.53
2022-12-23T02:27:35.397Z,3.59
2022-12-23T02:30:22.251Z,3.60
2022-12-23T02:33:30.116Z,3.47
2022-12-23T02:36:23.754Z,3.56
2022-12-23T02:39:29.722Z,3.60
2022-12-23T02:42:14.702Z,3.55
2022-12-23T02:44:46.605Z,3.65
2022-12-23T02:47:28.351Z,3.57
2022-12-23T02:50:06.529Z,3.68
2022-12-23T02:52:41.841Z,3.46
2022-12-23T02:55:18.018Z,3.62
2022-12-23T02:57:53.044Z,3.66
2022-12-23T03:00:25.143Z,3.57
2022-12-23T03:02:57.397Z,3.58
2022-12-23T03:05:42.728Z,3.67
2022-12-23T03:08:21.387Z,3.70
2022-12-23T03:11:04.810Z,3.53
2022-12-23T03:13:51.893Z,3.67
2022-12-23T03:16:31.311Z,3.61
2022-12-23T03:19:36.523Z,3.67
2022-12-23T03:22:30.617Z,3.64
2022-12-23T03:25:20.253Z,3.71
2022-12-23T03:28:04.859Z,3.59
2022-12-23T03:30:41.536Z,3.34
2022-12-23T03:33:22.872Z,3.69
2022-12-23T03:36:06.395Z,3.48
2022-12-23T03:38:40.868Z,3.58
2022-12-23T03:41:30.680Z,3.63
2022-12-23T03:44:27.400Z,3.66
2022-12-23T03:47:08.244Z,3.86
2022-12-23T03:49:54.367Z,3.81
2022-12-23T03:52:35.763Z,3.85
2022-12-23T03:55:15.520Z,3.85
2022-12-23T03:58:04.174Z,3.58
2022-12-23T04:00:44.237Z,3.63
2022-12-23T04:03:39.267Z,3.82
2022-12-23T04:06:16.375Z,3.73
2022-12-23T04:08:50.231Z,3.89
2022-12-23T04:11:22.208Z,3.88
2022-12-23T04:13:54.431Z,3.60
2022-12-23T04:16:28.615Z,3.89
2022-12-23T04:19:00.744Z,3.66
2022-12-23T04:21:32.678Z,3.83
2022-12-23T04:24:05.817Z,3.83
2022-12-23T04:26:38.016Z,3.60
2022-12-23T04:29:09.890Z,3.86
2022-12-23T04:31:41.855Z,3.73
2022-12-23T04:34:13.815Z,3.83
2022-12-23T04:36:45.796Z,3.82
2022-12-23T04:39:17.811Z,3.84
2022-12-23T04:41:50.236Z,3.80
2022-12-23T04:44:22.205Z,3.78
2022-12-23T04:46:54.347Z,3.77
2022-12-23T04:49:26.349Z,3.75
2022-12-23T04:51:58.796Z,3.97
2022-12-23T04:54:30.730Z,3.84
2022-12-23T04:57:02.736Z,3.83
2022-12-23T04:59:34.694Z,3.87
2022-12-23T05:02:07.263Z,3.91
2022-12-23T05:04:39.492Z,3.85
2022-12-23T05:07:11.474Z,3.66
2022-12-23T05:09:43.530Z,3.72
2022-12-23T05:12:15.511Z,3.42
2022-12-23T05:14:47.641Z,3.68
2022-12-23T05:17:19.625Z,3.72
2022-12-23T05:19:51.501Z,3.77
2022-12-23T05:22:23.469Z,3.68
2022-12-23T05:24:55.397Z,3.82
2022-12-23T05:27:27.344Z,3.52
2022-12-23T05:29:59.668Z,3.80
2022-12-23T05:32:31.737Z,3.63
2022-12-23T05:35:03.730Z,3.83
2022-12-23T05:37:35.695Z,3.39
2022-12-23T05:40:08.327Z,3.84
2022-12-23T05:42:40.529Z,3.82
2022-12-23T05:45:12.475Z,3.81
2022-12-23T05:47:44.426Z,3.72
2022-12-23T05:50:16.452Z,3.86
2022-12-23T05:52:48.371Z,3.74
2022-12-23T05:55:20.377Z,3.70
2022-12-23T05:57:55.523Z,3.71
2022-12-23T06:00:28.134Z,3.72
2022-12-23T06:03:00.400Z,3.74
2022-12-23T06:05:32.538Z,3.61
2022-12-23T06:08:04.750Z,3.76
2022-12-23T06:10:36.716Z,3.75
2022-12-23T06:13:08.850Z,3.76
2022-12-23T06:15:40.848Z,3.69
2022-12-23T06:18:12.879Z,3.69
2022-12-23T06:20:48.493Z,3.85
2022-12-23T06:23:20.450Z,3.73
2022-12-23T06:25:59.241Z,3.63
2022-12-23T06:28:31.329Z,3.59
2022-12-23T06:31:03.370Z,3.65
2022-12-23T06:33:35.367Z,3.65
2022-12-23T06:36:08.279Z,3.81
2022-12-23T06:38:40.405Z,3.78
2022-12-23T06:41:12.372Z,3.43
2022-12-23T06:43:44.369Z,3.80
2022-12-23T06:46:16.402Z,3.77
2022-12-23T06:48:48.380Z,3.79
2022-12-23T06:51:21.899Z,3.80
2022-12-23T06:53:54.053Z,3.70
2022-12-23T06:56:26.690Z,3.81
2022-12-23T06:58:58.624Z,3.77
2022-12-23T07:01:30.832Z,3.57
2022-12-23T07:04:03.421Z,3.75
2022-12-23T07:06:35.350Z,3.59
2022-12-23T07:09:07.824Z,3.54
2022-12-23T07:11:39.795Z,3.35
2022-12-23T07:14:12.139Z,3.71
2022-12-23T07:16:44.150Z,3.58
2022-12-23T07:19:16.212Z,3.69
2022-12-23T07:21:48.308Z,3.61
2022-12-23T07:24:20.236Z,3.51
2022-12-23T07:26:52.685Z,3.64
2022-12-23T07:29:24.637Z,3.61
2022-12-23T07:31:56.668Z,3.65
2022-12-23T07:34:28.669Z,3.69
2022-12-23T07:37:00.656Z,3.55
2022-12-23T07:39:32.616Z,3.65
2022-12-23T07:42:33.550Z,3.64
2022-12-23T07:44:56.396Z,3.65
2022-12-23T07:47:28.387Z,3.53
2022-12-23T07:50:00.326Z,3.44
2022-12-23T07:52:32.286Z,3.75
2022-12-23T07:55:04.814Z,3.82
2022-12-23T07:57:38.458Z,3.87
2022-12-23T08:00:12.861Z,3.89
2022-12-23T08:02:45.279Z,3.55
2022-12-23T08:05:17.691Z,3.69
2022-12-23T08:07:50.456Z,3.64
2022-12-23T08:10:22.906Z,3.91
2022-12-23T08:12:55.097Z,3.98
2022-12-23T08:15:27.185Z,3.61
2022-12-23T08:18:00.673Z,4.10
2022-12-23T08:20:32.521Z,4.01
2022-12-23T08:23:04.470Z,3.98
2022-12-23T08:25:36.393Z,4.08
2022-12-23T08:28:08.377Z,3.99
2022-12-23T08:30:40.329Z,4.14
2022-12-23T08:33:12.224Z,4.23
2022-12-23T08:35:44.182Z,4.32
2022-12-23T08:38:16.163Z,4.33
2022-12-23T08:40:48.183Z,4.34
2022-12-23T08:43:20.167Z,4.30
2022-12-23T08:45:52.254Z,4.47
2022-12-23T08:48:24.260Z,4.50
2022-12-23T08:50:56.328Z,4.53
2022-12-23T08:53:28.291Z,4.12
2022-12-23T08:56:09.741Z,4.60
2022-12-23T08:58:44.411Z,4.58
2022-12-23T09:01:18.425Z,4.61
2022-12-23T09:03:51.211Z,4.66
2022-12-23T09:06:29.701Z,4.66
2022-12-23T09:09:02.356Z,4.33
2022-12-23T09:11:35.580Z,4.76
2022-12-23T09:14:10.353Z,4.81
2022-12-23T09:16:42.397Z,4.68
2022-12-23T09:19:14.445Z,4.70
2022-12-23T09:21:46.527Z,4.80
2022-12-23T09:24:18.512Z,4.82
2022-12-23T09:26:50.449Z,4.68
2022-12-23T09:29:22.486Z,4.87
2022-12-23T09:31:54.740Z,4.87
2022-12-23T09:34:27.237Z,4.76
2022-12-23T09:36:59.187Z,4.76
2022-12-23T09:39:31.408Z,4.53
2022-12-23T09:42:26.608Z,4.88
2022-12-23T09:45:12.049Z,4.88
2022-12-23T09:47:45.571Z,4.95
2022-12-23T09:50:29.189Z,4.95
2022-12-23T09:53:04.553Z,5.02
2022-12-23T09:55:58.044Z,5.04
2022-12-23T09:58:30.009Z,5.08
2022-12-23T10:01:16.459Z,5.11
2022-12-23T10:04:05.142Z,5.24
2022-12-23T10:06:39.315Z,5.21
2022-12-23T10:09:12.819Z,5.36
2022-12-23T10:11:47.275Z,5.36
2022-12-23T10:14:20.699Z,5.30
2022-12-23T10:17:01.039Z,5.19
2022-12-23T10:19:54.160Z,5.28
2022-12-23T10:22:33.969Z,5.17
2022-12-23T10:25:20.426Z,5.26
2022-12-23T10:27:52.419Z,5.09
2022-12-23T10:33:22.796Z,5.23
2022-12-23T10:36:16.269Z,5.22
2022-12-23T10:39:01.827Z,5.12
2022-12-23T10:41:48.731Z,5.11
2022-12-23T10:44:39.433Z,5.16
2022-12-23T10:47:21.040Z,5.09
2022-12-23T10:50:19.294Z,5.12
2022-12-23T10:52:53.033Z,4.98
2022-12-23T10:55:33.461Z,5.06
2022-12-23T10:58:18.603Z,5.04
2022-12-23T11:01:05.765Z,5.00
2022-12-23T11:03:49.530Z,5.13
2022-12-23T11:06:21.914Z,5.07
2022-12-23T11:08:55.341Z,5.00
2022-12-23T11:12:04.422Z,5.03
2022-12-23T11:14:51.371Z,5.13
2022-12-23T11:17:29.514Z,4.99
2022-12-23T11:20:10.683Z,5.18
2022-12-23T11:22:54.437Z,5.15
2022-12-23T11:25:35.254Z,5.21
2022-12-23T11:28:17.787Z,5.17
2022-12-23T11:30:56.298Z,5.25
2022-12-23T11:33:32.109Z,5.29
2022-12-23T11:36:09.290Z,5.28
2022-12-23T11:39:03.978Z,5.32
2022-12-23T11:41:43.790Z,5.26
2022-12-23T11:44:28.708Z,5.32
2022-12-23T11:47:24.598Z,5.30
2022-12-23T11:50:01.579Z,5.32
2022-12-23T11:52:34.320Z,5.26
2022-12-23T11:55:07.286Z,5.24
2022-12-23T11:57:43.572Z,5.05
2022-12-23T12:00:22.822Z,5.22
2022-12-23T12:02:59.077Z,5.22
2022-12-23T12:05:47.350Z,5.06
2022-12-23T12:08:25.028Z,5.20
2022-12-23T12:11:21.960Z,5.29
2022-12-23T12:14:03.292Z,5.10
2022-12-23T12:16:55.495Z,5.24
2022-12-23T12:19:36.068Z,5.24
2022-12-23T12:22:26.448Z,5.05
2022-12-23T12:25:01.108Z,5.24
2022-12-23T12:27:38.577Z,5.08
2022-12-23T12:30:18.582Z,5.29
2022-12-23T12:33:01.393Z,5.23
2022-12-23T12:35:54.621Z,5.27
2022-12-23T12:38:32.733Z,5.23
2022-12-23T12:41:23.527Z,5.29
2022-12-23T12:44:03.568Z,5.24
2022-12-23T12:46:50.680Z,5.11
2022-12-23T12:49:30.462Z,5.26
2022-12-23T12:52:12.313Z,5.26
2022-12-23T12:54:48.196Z,5.22
2022-12-23T12:57:23.110Z,5.20
2022-12-23T13:00:05.314Z,5.11
2022-12-23T13:02:50.553Z,5.20
2022-12-23T13:05:37.653Z,5.23
2022-12-23T13:08:27.472Z,5.26
2022-12-23T13:11:11.542Z,5.25
2022-12-23T13:13:51.510Z,5.24
2022-12-23T13:16:27.308Z,5.28
2022-12-23T13:19:04.629Z,5.28
2022-12-23T13:22:16.183Z,5.14
2022-12-23T13:25:22.241Z,5.29
2022-12-23T13:28:15.417Z,5.24
2022-12-23T13:31:20.728Z,5.09
2022-12-23T13:34:18.404Z,5.10
2022-12-23T13:37:18.465Z,5.19
2022-12-23T13:40:08.727Z,5.19
2022-12-23T13:42:51.167Z,5.21
2022-12-23T13:45:28.338Z,5.17
2022-12-23T13:48:26.712Z,5.07
2022-12-23T13:51:15.582Z,5.20
2022-12-23T13:54:10.732Z,4.93
2022-12-23T13:56:57.717Z,5.17
2022-12-23T13:59:41.932Z,5.19
2022-12-23T14:02:35.779Z,5.15
2022-12-23T14:05:27.367Z,5.09
2022-12-23T14:08:01.412Z,5.20
2022-12-23T14:10:34.617Z,5.18
2022-12-23T14:13:09.072Z,5.11
2022-12-23T14:16:08.762Z,5.22
2022-12-23T14:19:14.709Z,5.14
2022-12-23T14:22:24.620Z,5.18
2022-12-23T14:25:17.708Z,5.17
2022-12-23T14:27:58.686Z,5.19
2022-12-23T14:30:37.691Z,5.16
2022-12-23T14:33:18.911Z,5.18
2022-12-23T14:35:57.752Z,5.13
2022-12-23T14:38:32.483Z,5.15
2022-12-23T14:41:24.048Z,5.14
2022-12-23T14:43:57.418Z,5.19
2022-12-23T14:46:37.155Z,5.18
2022-12-23T14:49:41.092Z,5.17
2022-12-23T14:52:44.410Z,5.19
2022-12-23T14:55:31.582Z,5.20
2022-12-23T14:58:15.428Z,5.19
2022-12-23T15:00:51.722Z,5.18
2022-12-23T15:03:34.551Z,4.65
2022-12-23T15:06:07.573Z,5.16
2022-12-23T15:08:44.583Z,5.18
2022-12-23T15:11:25.126Z,5.21
2022-12-23T15:14:02.958Z,5.11
2022-12-23T15:16:37.663Z,5.21
2022-12-23T15:19:19.491Z,5.13
2022-12-23T15:22:17.929Z,5.19
2022-12-23T15:24:53.026Z,4.98
2022-12-23T15:27:28.374Z,5.03
2022-12-23T15:30:02.119Z,5.17
2022-12-23T15:32:34.570Z,5.18
2022-12-23T15:35:07.961Z,5.08
2022-12-23T15:37:41.430Z,5.22
2022-12-23T15:40:44.676Z,5.21
2022-12-23T15:43:20.127Z,5.17
2022-12-23T15:45:52.996Z,4.97
2022-12-23T15:48:32.943Z,5.17
2022-12-23T15:51:12.951Z,5.20
2022-12-23T15:53:48.095Z,5.16
2022-12-23T15:56:26.247Z,5.21
2022-12-23T15:58:58.877Z,4.98
2022-12-23T16:01:39.035Z,5.25
2022-12-23T16:04:22.282Z,5.18
2022-12-23T16:06:54.400Z,5.12
2022-12-23T16:09:33.568Z,5.20
2022-12-23T16:12:26.498Z,5.26
2022-12-23T16:15:01.178Z,5.11
2022-12-23T16:17:34.699Z,5.30
2022-12-23T16:20:26.957Z,5.13
2022-12-23T16:23:03.152Z,5.15
2022-12-23T16:25:36.505Z,5.32
2022-12-23T16:28:13.830Z,5.29
2022-12-23T16:30:49.851Z,5.15
2022-12-23T16:33:33.914Z,5.34
2022-12-23T16:36:22.386Z,5.21
2022-12-23T16:39:00.257Z,5.25
2022-12-23T16:41:32.384Z,5.31
2022-12-23T16:44:04.811Z,5.29
2022-12-23T16:46:40.326Z,5.28
2022-12-23T16:49:18.933Z,5.38
2022-12-23T16:51:50.924Z,5.24
2022-12-23T16:54:23.164Z,5.36
2022-12-23T16:56:55.432Z,4.81
2022-12-23T16:59:27.535Z,5.29
2022-12-23T17:02:03.728Z,5.19
2022-12-23T17:04:36.026Z,5.14
2022-12-23T17:07:12.599Z,5.06
2022-12-23T17:09:44.596Z,5.34
2022-12-23T17:12:16.535Z,5.36
2022-12-23T17:14:48.495Z,5.30
2022-12-23T17:17:21.849Z,5.31
2022-12-23T17:19:56.489Z,5.40
2022-12-23T17:22:28.949Z,5.40
2022-12-23T17:25:00.881Z,5.23
2022-12-23T17:27:32.854Z,5.38
2022-12-23T17:30:05.193Z,5.35
2022-12-23T17:32:37.206Z,5.37
2022-12-23T17:35:15.296Z,5.35
2022-12-23T17:37:47.425Z,5.37
2022-12-23T17:40:20.494Z,5.39
2022-12-23T17:42:52.464Z,5.45
2022-12-23T17:45:27.225Z,5.43
2022-12-23T17:47:59.369Z,5.44
2022-12-23T17:50:34.449Z,5.25
2022-12-23T17:53:06.681Z,5.25
2022-12-23T17:55:38.608Z,5.29
2022-12-23T17:58:10.787Z,5.13
2022-12-23T18:00:42.780Z,5.18
2022-12-23T18:03:23.818Z,5.51
2022-12-23T18:06:01.813Z,5.47
2022-12-23T18:08:34.303Z,5.43
2022-12-23T18:11:07.299Z,5.47
2022-12-23T18:13:39.393Z,5.46
2022-12-23T18:16:13.773Z,5.35
2022-12-23T18:18:47.071Z,5.53
2022-12-23T18:21:25.763Z,5.51
2022-12-23T18:24:00.037Z,5.38
2022-12-23T18:26:32.172Z,5.28
2022-12-23T18:29:04.384Z,5.33
2022-12-23T18:31:50.548Z,5.51
2022-12-23T18:34:23.841Z,5.43
2022-12-23T18:36:55.845Z,5.52
2022-12-23T18:39:27.887Z,5.47
2022-12-23T18:42:00.249Z,5.32
2022-12-23T18:44:32.240Z,5.43
2022-12-23T18:47:04.263Z,5.42
2022-12-23T18:49:36.515Z,5.23
2022-12-23T18:52:14.895Z,5.40
2022-12-23T18:54:46.840Z,5.42
2022-12-23T18:57:21.598Z,5.12
2022-12-23T18:59:53.551Z,5.38
2022-12-23T19:02:25.666Z,5.34
2022-12-23T19:04:57.633Z,5.24
2022-12-23T19:07:29.616Z,5.49
2022-12-23T19:10:01.577Z,5.41
2022-12-23T19:12:33.588Z,5.61
2022-12-23T19:15:06.020Z,5.63
2022-12-23T19:17:38.421Z,5.56
2022-12-23T19:20:14.111Z,5.44
2022-12-23T19:22:47.573Z,5.51
2022-12-23T19:25:20.152Z,5.49
2022-12-23T19:27:52.145Z,5.59
2022-12-23T19:30:24.334Z,5.49
2022-12-23T19:32:56.337Z,5.57
2022-12-23T19:35:28.760Z,5.65
2022-12-23T19:38:00.773Z,5.58
2022-12-23T19:40:32.751Z,5.45
2022-12-23T19:43:05.061Z,5.66
2022-12-23T19:45:37.019Z,5.40
2022-12-23T19:48:08.988Z,5.25
2022-12-23T19:50:40.925Z,5.19
2022-12-23T19:55:45.166Z,5.17
2022-12-23T19:58:17.176Z,5.55
2022-12-23T20:00:49.217Z,5.62
2022-12-23T20:03:21.242Z,5.54
2022-12-23T20:05:53.211Z,5.39
2022-12-23T20:08:25.167Z,5.40
2022-12-23T20:11:12.946Z,5.61
2022-12-23T20:13:45.960Z,5.63
2022-12-23T20:16:18.237Z,5.37
2022-12-23T20:18:50.671Z,5.49
2022-12-23T20:21:23.046Z,5.68
2022-12-23T20:23:55.047Z,5.54
2022-12-23T20:26:29.337Z,5.71
2022-12-23T20:29:01.541Z,5.64
2022-12-23T20:31:35.812Z,5.70
2022-12-23T20:34:11.428Z,5.70
2022-12-23T20:36:43.664Z,5.49
2022-12-23T20:39:15.712Z,5.33
2022-12-23T20:41:47.677Z,5.27
2022-12-23T20:44:36.905Z,5.26
2022-12-23T20:47:09.591Z,5.62
2022-12-23T20:49:41.664Z,5.52
2022-12-23T20:52:13.731Z,5.46
2022-12-23T20:54:45.725Z,5.45
2022-12-23T20:57:17.958Z,5.21
2022-12-23T20:59:50.158Z,5.37
2022-12-23T21:02:22.159Z,5.14
2022-12-23T21:04:54.210Z,5.31
2022-12-23T21:07:26.961Z,5.23
2022-12-23T21:09:59.087Z,5.39
2022-12-23T21:12:31.110Z,5.02
2022-12-23T21:15:03.318Z,5.24
2022-12-23T21:17:35.235Z,5.31
2022-12-23T21:20:09.457Z,5.05
2022-12-23T21:22:41.459Z,5.25
2022-12-23T21:25:13.381Z,5.12
2022-12-23T21:27:45.406Z,5.19
2022-12-23T21:30:17.411Z,5.28
2022-12-23T21:32:49.584Z,5.26
2022-12-23T21:35:21.540Z,5.28
2022-12-23T21:37:53.447Z,4.83
2022-12-23T21:40:25.479Z,5.13
2022-12-23T21:42:57.416Z,5.01
2022-12-23T21:45:29.501Z,5.18
2022-12-23T21:48:01.439Z,4.88
2022-12-23T21:50:33.520Z,5.20
2022-12-23T21:53:05.497Z,4.95
2022-12-23T21:55:37.809Z,5.17
2022-12-23T21:58:10.839Z,5.18
2022-12-23T22:00:45.595Z,5.24
2022-12-23T22:03:17.593Z,5.09
2022-12-23T22:05:49.613Z,5.24
2022-12-23T22:08:21.549Z,5.08
2022-12-23T22:10:53.503Z,5.11
2022-12-23T22:13:28.800Z,5.09
2022-12-23T22:16:00.725Z,4.98
2022-12-23T22:18:32.719Z,5.08
2022-12-23T22:21:13.904Z,5.07
2022-12-23T22:23:49.293Z,5.11
2022-12-23T22:26:25.771Z,5.07
2022-12-23T22:29:01.017Z,5.14
2022-12-23T22:31:46.431Z,5.13
2022-12-23T22:34:23.142Z,5.12
2022-12-23T22:36:55.535Z,4.77
2022-12-23T22:39:27.505Z,5.04
2022-12-23T22:41:59.515Z,5.08
2022-12-23T22:44:31.436Z,4.93
2022-12-23T22:47:03.882Z,4.98
2022-12-23T22:49:35.895Z,4.99
2022-12-23T22:52:08.393Z,4.99
2022-12-23T22:54:40.362Z,4.90
2022-12-23T22:57:12.362Z,4.63
2022-12-23T22:59:44.308Z,4.95
2022-12-23T23:02:16.375Z,4.92
2022-12-23T23:04:48.223Z,4.93
2022-12-23T23:07:20.243Z,4.80
2022-12-23T23:09:52.197Z,4.81
2022-12-23T23:12:24.195Z,4.96
2022-12-23T23:14:56.340Z,4.93
2022-12-23T23:17:29.789Z,4.94
2022-12-23T23:20:01.791Z,4.85
2022-12-23T23:22:33.859Z,4.71
2022-12-23T23:25:06.425Z,4.67
2022-12-23T23:27:38.422Z,4.80
2022-12-23T23:30:10.694Z,4.47
2022-12-23T23:32:42.836Z,4.76
2022-12-23T23:35:14.954Z,4.82
2022-12-23T23:37:46.959Z,4.75
2022-12-23T23:40:19.269Z,4.71
2022-12-23T23:42:51.279Z,4.76
2022-12-23T23:45:23.545Z,4.73
2022-12-23T23:47:55.839Z,4.70
2022-12-23T23:50:27.922Z,4.69
2022-12-23T23:52:59.849Z,4.67
2022-12-23T23:55:31.923Z,4.71
2022-12-23T23:58:05.404Z,4.68
